Time;durP1;ratioP1;P1;durP2;ratioP2;P2;SDS_P1;SDS_P2;PMS_P1;PMS_P2;Temp;Humidity;BMP_temperature;BMP_pressure;BME280_temperature;BME280_humidity;BME280_pressure;Samples;Min_cycle;Max_cycle;Signal;HPM_P1;HPM_P2
2022/05/22 00:01:50;;;;;;;1.52;1.33;;;11.90;72.00;;;;;;580205;248;26687;-68
2022/05/22 00:04:18;;;;;;;2.50;1.10;;;11.90;72.20;;;;;;580218;248;26626;-68
2022/05/22 00:06:45;;;;;;;2.50;1.08;;;11.90;72.20;;;;;;590923;242;26578;-68
2022/05/22 00:09:12;;;;;;;2.60;1.40;;;12.00;72.70;;;;;;580220;248;26635;-68
2022/05/22 00:11:40;;;;;;;2.22;1.23;;;12.00;72.60;;;;;;580195;248;26889;-68
2022/05/22 00:14:07;;;;;;;2.15;1.10;;;12.00;72.90;;;;;;590909;243;26671;-69
2022/05/22 00:16:36;;;;;;;3.00;1.23;;;12.00;72.70;;;;;;580223;248;26867;-69
2022/05/22 00:19:04;;;;;;;1.75;1.62;;;12.00;73.00;;;;;;579971;248;26686;-69
2022/05/22 00:21:32;;;;;;;2.87;1.20;;;12.00;73.40;;;;;;579836;248;26738;-69
2022/05/22 00:24:00;;;;;;;1.37;1.20;;;12.00;73.90;;;;;;579852;248;26697;-69
2022/05/22 00:26:27;;;;;;;2.15;1.20;;;12.00;73.50;;;;;;590599;242;26621;-69
2022/05/22 00:28:54;;;;;;;1.73;1.20;;;12.00;73.60;;;;;;591169;241;26621;-69
2022/05/22 00:31:21;;;;;;;1.92;1.10;;;12.00;73.80;;;;;;583938;246;27012;-68
2022/05/22 00:33:49;;;;;;;2.03;1.12;;;11.90;73.80;;;;;;583670;246;26625;-69
2022/05/22 00:36:16;;;;;;;2.35;1.15;;;11.90;73.80;;;;;;583546;246;27029;-69
2022/05/22 00:38:43;;;;;;;4.93;1.30;;;11.90;73.80;;;;;;583367;246;26647;-69
2022/05/22 00:41:10;;;;;;;1.77;1.00;;;11.90;74.10;;;;;;583289;246;26876;-68
2022/05/22 00:43:37;;;;;;;3.30;1.30;;;11.90;74.20;;;;;;591069;243;26616;-68
2022/05/22 00:46:05;;;;;;;2.30;1.42;;;11.90;74.30;;;;;;580397;248;26863;-68
2022/05/22 00:48:32;;;;;;;2.00;1.08;;;11.90;74.30;;;;;;580027;247;26642;-68
2022/05/22 00:51:00;;;;;;;1.15;0.82;;;11.90;74.10;;;;;;580117;248;26937;-68
2022/05/22 00:53:27;;;;;;;3.58;1.17;;;11.90;74.30;;;;;;579942;248;26911;-68
2022/05/22 00:55:54;;;;;;;1.60;1.08;;;11.90;74.40;;;;;;580131;246;26626;-69
2022/05/22 00:58:21;;;;;;;3.55;1.05;;;11.80;74.60;;;;;;582922;246;26839;-69
2022/05/22 01:00:49;;;;;;;1.27;1.00;;;11.70;74.90;;;;;;590594;243;26672;-69
2022/05/22 01:05:49;;;;;;;2.50;1.27;;;11.60;76.20;;;;;;579969;248;26649;-68
2022/05/22 01:08:16;;;;;;;2.15;1.02;;;11.40;77.10;;;;;;579884;248;26697;-68
2022/05/22 01:10:46;;;;;;;3.05;1.33;;;11.40;77.40;;;;;;579908;248;26678;-68
2022/05/22 01:13:13;;;;;;;2.22;1.20;;;11.40;77.50;;;;;;580139;248;26696;-69
2022/05/22 01:15:41;;;;;;;2.80;1.17;;;11.30;77.90;;;;;;580077;248;26645;-69
2022/05/22 01:18:08;;;;;;;2.40;1.12;;;11.30;78.40;;;;;;580275;248;26894;-66
2022/05/22 01:20:35;;;;;;;2.30;1.00;;;11.30;78.80;;;;;;580228;248;26649;-68
2022/05/22 01:23:03;;;;;;;1.52;1.00;;;11.20;79.20;;;;;;580184;248;26954;-68
2022/05/22 01:25:31;;;;;;;1.20;1.08;;;11.20;79.70;;;;;;580218;248;26657;-68
2022/05/22 01:27:57;;;;;;;2.47;1.35;;;11.10;80.00;;;;;;590907;243;26627;-68
2022/05/22 01:30:25;;;;;;;2.28;0.93;;;11.10;80.80;;;;;;590908;243;26594;-68
2022/05/22 01:32:53;;;;;;;2.42;1.10;;;11.10;81.30;;;;;;580085;248;26689;-68
2022/05/22 01:35:21;;;;;;;2.67;1.00;;;11.10;81.80;;;;;;579990;248;26641;-68
2022/05/22 01:37:48;;;;;;;1.92;1.00;;;11.00;81.70;;;;;;579844;248;26688;-68
2022/05/22 01:40:15;;;;;;;2.00;1.00;;;11.00;82.20;;;;;;580336;246;26699;-68
2022/05/22 01:42:42;;;;;;;2.00;1.00;;;11.00;82.70;;;;;;581217;247;26858;-68
2022/05/22 01:45:10;;;;;;;2.25;1.12;;;11.00;82.90;;;;;;580851;248;26653;-68
2022/05/22 01:47:38;;;;;;;1.48;1.25;;;11.00;83.30;;;;;;580729;248;26904;-68
2022/05/22 01:50:07;;;;;;;2.85;1.12;;;11.00;83.30;;;;;;580601;248;27042;-68
2022/05/22 01:52:34;;;;;;;2.33;1.23;;;11.00;83.30;;;;;;580443;248;26638;-68
2022/05/22 01:55:01;;;;;;;1.75;1.08;;;11.00;83.60;;;;;;591207;243;27057;-68
2022/05/22 01:57:30;;;;;;;1.05;0.98;;;11.00;83.70;;;;;;583264;246;26637;-68
2022/05/22 01:59:55;;;;;;;1.95;1.23;;;11.10;83.80;;;;;;582944;247;27207;-68
2022/05/22 02:02:23;;;;;;;4.00;1.10;;;11.10;83.70;;;;;;582979;246;26625;-68
2022/05/22 02:04:50;;;;;;;1.67;1.05;;;11.10;83.80;;;;;;582969;247;26895;-68
2022/05/22 02:09:51;;;;;;;1.87;1.00;;;11.20;84.00;;;;;;582974;247;26883;-68
2022/05/22 02:12:18;;;;;;;2.25;1.17;;;11.20;84.20;;;;;;582980;247;26614;-68
2022/05/22 02:14:45;;;;;;;1.70;1.00;;;11.20;84.40;;;;;;583001;247;27006;-68
2022/05/22 02:17:13;;;;;;;1.30;1.20;;;11.20;84.30;;;;;;582849;247;26653;-68
2022/05/22 02:19:40;;;;;;;1.92;0.90;;;11.30;84.50;;;;;;582715;247;27001;-68
2022/05/22 02:22:07;;;;;;;2.25;1.10;;;11.30;84.50;;;;;;582711;247;26669;-68
2022/05/22 02:24:34;;;;;;;2.50;1.17;;;11.30;84.40;;;;;;582739;247;27335;-68
2022/05/22 02:27:06;;;;;;;1.35;1.10;;;11.30;84.60;;;;;;582755;247;26681;-68
2022/05/22 02:29:32;;;;;;;3.33;1.27;;;11.30;84.80;;;;;;582615;247;26681;-68
2022/05/22 02:32:00;;;;;;;0.85;0.80;;;11.30;84.80;;;;;;582700;247;26682;-68
2022/05/22 02:34:27;;;;;;;1.75;1.00;;;11.30;84.80;;;;;;590622;243;26641;-68
2022/05/22 02:36:55;;;;;;;4.00;1.08;;;11.30;85.30;;;;;;579858;245;26733;-68
2022/05/22 02:39:23;;;;;;;1.92;1.08;;;11.30;85.20;;;;;;590559;243;26607;-68
2022/05/22 02:41:51;;;;;;;2.45;0.90;;;11.20;85.10;;;;;;579866;248;26692;-68
2022/05/22 02:44:18;;;;;;;1.75;1.10;;;11.20;85.50;;;;;;579863;248;26954;-68
2022/05/22 02:46:45;;;;;;;4.60;1.17;;;11.20;85.50;;;;;;579882;248;26682;-68
2022/05/22 02:49:12;;;;;;;0.98;0.93;;;11.20;86.20;;;;;;579891;248;26908;-69
2022/05/22 02:51:39;;;;;;;2.45;1.00;;;11.10;86.50;;;;;;590796;241;26614;-69
2022/05/22 02:54:07;;;;;;;2.17;1.10;;;11.10;87.00;;;;;;591976;243;27177;-69
2022/05/22 02:56:34;;;;;;;1.48;0.80;;;11.00;87.60;;;;;;591625;242;26617;-69
2022/05/22 02:59:01;;;;;;;1.48;1.02;;;10.90;87.90;;;;;;591443;243;26641;-69
2022/05/22 03:01:29;;;;;;;3.37;1.05;;;10.90;89.00;;;;;;591269;243;26687;-69
2022/05/22 03:03:57;;;;;;;2.47;1.10;;;10.90;89.40;;;;;;591148;243;26670;-69
2022/05/22 03:08:58;;;;;;;2.55;1.30;;;10.80;89.70;;;;;;580383;248;26639;-68
2022/05/22 03:11:25;;;;;;;2.55;1.37;;;10.80;90.10;;;;;;580135;248;26969;-68
2022/05/22 03:13:52;;;;;;;4.22;1.50;;;10.80;90.30;;;;;;583015;247;26656;-69
2022/05/22 03:16:19;;;;;;;2.12;0.93;;;10.80;90.50;;;;;;582963;247;27295;-68
2022/05/22 03:18:47;;;;;;;1.65;1.10;;;10.80;90.70;;;;;;582943;247;26622;-68
2022/05/22 03:21:14;;;;;;;3.90;1.10;;;10.70;90.80;;;;;;583046;247;26876;-68
2022/05/22 03:23:41;;;;;;;3.90;1.30;;;10.70;91.00;;;;;;582992;246;26642;-68
2022/05/22 03:26:09;;;;;;;2.12;1.10;;;10.70;91.10;;;;;;583038;246;26642;-68
2022/05/22 03:28:36;;;;;;;2.37;1.20;;;10.80;91.30;;;;;;582780;247;26606;-68
2022/05/22 03:31:04;;;;;;;1.48;1.00;;;11.00;91.20;;;;;;590487;243;26588;-68
2022/05/22 03:33:32;;;;;;;1.58;1.00;;;11.10;91.10;;;;;;579841;248;26722;-68
2022/05/22 03:36:00;;;;;;;2.55;0.98;;;11.00;91.50;;;;;;590651;243;26590;-68
2022/05/22 03:38:27;;;;;;;2.47;1.12;;;11.00;91.20;;;;;;590660;243;26586;-68
2022/05/22 03:40:55;;;;;;;4.47;1.20;;;11.10;91.30;;;;;;590665;243;27151;-68
2022/05/22 03:43:22;;;;;;;2.58;1.10;;;11.10;91.20;;;;;;590579;243;26629;-68
2022/05/22 03:45:50;;;;;;;2.05;1.20;;;11.20;91.20;;;;;;579923;248;26917;-68
2022/05/22 03:48:17;;;;;;;1.42;1.02;;;11.30;91.10;;;;;;582763;247;26724;-68
2022/05/22 03:50:46;;;;;;;2.85;1.00;;;11.30;91.10;;;;;;582799;247;26653;-68
2022/05/22 03:53:13;;;;;;;2.20;1.00;;;11.20;91.00;;;;;;590563;243;26634;-68
2022/05/22 03:55:42;;;;;;;3.37;1.08;;;11.20;91.20;;;;;;579879;247;26917;-68
2022/05/22 03:58:08;;;;;;;2.28;1.02;;;11.10;91.70;;;;;;579891;248;26684;-68
2022/05/22 04:00:36;;;;;;;1.67;1.10;;;11.10;91.60;;;;;;579869;248;26666;-68
2022/05/22 04:03:03;;;;;;;2.95;1.48;;;11.10;92.10;;;;;;579963;246;27032;-68
2022/05/22 04:05:30;;;;;;;3.20;1.00;;;11.00;92.00;;;;;;592117;242;26694;-68
2022/05/22 04:07:58;;;;;;;1.62;1.10;;;11.00;92.10;;;;;;591624;243;26858;-68
2022/05/22 04:10:26;;;;;;;2.60;1.27;;;11.00;92.10;;;;;;580687;248;26704;-68
2022/05/22 04:12:53;;;;;;;1.98;1.12;;;11.00;92.20;;;;;;591248;243;26704;-68
2022/05/22 04:15:20;;;;;;;2.20;1.08;;;11.00;92.30;;;;;;591133;243;26864;-68
2022/05/22 04:17:47;;;;;;;3.08;1.25;;;11.00;92.40;;;;;;580418;248;26644;-68
2022/05/22 04:20:14;;;;;;;1.85;1.05;;;11.00;92.40;;;;;;580350;248;26873;-68
2022/05/22 04:25:17;;;;;;;1.50;1.12;;;11.00;92.40;;;;;;582988;246;26614;-68
2022/05/22 04:27:42;;;;;;;3.28;1.20;;;11.10;92.40;;;;;;582901;247;26897;-68
2022/05/22 04:30:10;;;;;;;3.22;1.20;;;11.10;92.30;;;;;;590782;243;26644;-67
2022/05/22 04:32:37;;;;;;;1.48;1.00;;;11.20;92.20;;;;;;580060;248;26646;-67
2022/05/22 04:35:05;;;;;;;2.00;1.08;;;11.30;92.10;;;;;;590816;243;26675;-67
2022/05/22 04:37:33;;;;;;;2.10;1.20;;;11.40;91.80;;;;;;590921;243;26620;-67
2022/05/22 04:40:01;;;;;;;2.92;1.23;;;11.50;91.60;;;;;;590699;243;26670;-67
2022/05/22 04:42:29;;;;;;;2.90;1.20;;;11.60;91.20;;;;;;579849;248;26700;-68
2022/05/22 04:44:56;;;;;;;3.90;1.30;;;11.60;91.40;;;;;;579869;248;26734;-67
2022/05/22 04:47:24;;;;;;;2.12;1.20;;;11.60;91.30;;;;;;590621;243;26602;-68
2022/05/22 04:49:51;;;;;;;3.80;1.12;;;11.70;91.10;;;;;;579846;248;26911;-68
2022/05/22 04:52:18;;;;;;;2.47;1.08;;;11.80;91.00;;;;;;579830;248;26694;-68
2022/05/22 04:54:47;;;;;;;1.98;1.08;;;11.80;91.10;;;;;;579932;248;26912;-68
2022/05/22 04:57:12;;;;;;;2.42;1.37;;;11.80;91.00;;;;;;580434;248;26632;-68
2022/05/22 04:59:39;;;;;;;2.30;1.08;;;11.90;91.00;;;;;;579940;248;27322;-68
2022/05/22 05:02:07;;;;;;;1.98;1.05;;;11.90;91.00;;;;;;590514;243;26595;-68
2022/05/22 05:04:34;;;;;;;2.45;1.10;;;11.80;90.90;;;;;;590636;243;26875;-68
2022/05/22 05:07:05;;;;;;;2.67;1.37;;;11.80;91.20;;;;;;590608;243;26620;-68
2022/05/22 05:09:32;;;;;;;2.37;1.37;;;11.80;91.20;;;;;;579892;248;26689;-68
2022/05/22 05:12:00;;;;;;;4.45;1.40;;;11.80;91.10;;;;;;579848;248;26730;-68
2022/05/22 05:14:27;;;;;;;4.30;1.17;;;11.80;91.30;;;;;;579807;248;26702;-68
2022/05/22 05:16:55;;;;;;;1.98;1.37;;;12.00;91.10;;;;;;581427;246;26609;-68
2022/05/22 05:19:23;;;;;;;3.97;1.52;;;12.10;91.00;;;;;;591620;243;26613;-68
2022/05/22 05:21:50;;;;;;;4.30;1.33;;;12.00;91.00;;;;;;580630;248;26705;-68
2022/05/22 05:24:17;;;;;;;2.67;1.30;;;12.00;91.00;;;;;;580637;248;26696;-68
2022/05/22 05:26:44;;;;;;;4.78;1.48;;;12.10;91.10;;;;;;591176;243;26829;-68
2022/05/22 05:29:12;;;;;;;1.80;1.20;;;12.20;91.00;;;;;;591164;243;26655;-68
2022/05/22 05:31:39;;;;;;;3.78;1.23;;;12.30;90.70;;;;;;580436;248;26907;-68
2022/05/22 05:34:08;;;;;;;2.30;1.17;;;12.10;90.70;;;;;;590862;243;26639;-68
2022/05/22 05:36:36;;;;;;;2.62;1.35;;;12.10;90.80;;;;;;590844;243;26611;-68
2022/05/22 05:39:04;;;;;;;1.58;1.17;;;12.10;91.00;;;;;;582996;247;26889;-67
2022/05/22 05:41:35;;;;;;;1.90;1.20;;;12.10;91.00;;;;;;590825;243;26607;-67
2022/05/22 05:44:01;;;;;;;2.12;1.17;;;12.00;91.00;;;;;;579906;248;26657;-67
2022/05/22 05:46:27;;;;;;;3.28;1.20;;;12.20;91.00;;;;;;580046;248;26633;-67
2022/05/22 05:48:54;;;;;;;2.58;1.02;;;12.30;90.70;;;;;;590860;243;26931;-67
2022/05/22 05:51:21;;;;;;;2.50;1.30;;;12.30;90.70;;;;;;590642;243;26658;-67
2022/05/22 05:53:48;;;;;;;4.85;1.62;;;12.20;90.80;;;;;;579857;248;27061;-67
2022/05/22 05:56:15;;;;;;;2.65;1.37;;;12.20;90.80;;;;;;579933;248;26663;-67
2022/05/22 05:58:43;;;;;;;4.82;1.55;;;12.10;90.90;;;;;;590623;243;26853;-67
2022/05/22 06:01:12;;;;;;;2.75;1.40;;;12.20;90.80;;;;;;579828;248;26724;-67
2022/05/22 06:03:39;;;;;;;2.95;1.15;;;12.20;90.80;;;;;;579880;248;26974;-67
2022/05/22 06:06:07;;;;;;;4.28;1.40;;;12.30;90.90;;;;;;590545;243;26611;-68
2022/05/22 06:08:34;;;;;;;2.67;1.30;;;12.50;90.50;;;;;;579710;245;26684;-68
2022/05/22 06:11:03;;;;;;;3.28;1.20;;;13.00;89.70;;;;;;590461;243;26618;-68
2022/05/22 06:13:30;;;;;;;2.28;1.27;;;13.00;89.80;;;;;;579852;248;26942;-68
2022/05/22 06:15:58;;;;;;;3.17;1.48;;;13.40;88.30;;;;;;579914;248;26694;-68
2022/05/22 06:18:25;;;;;;;5.28;1.45;;;13.70;86.30;;;;;;579873;248;26974;-68
2022/05/22 06:20:52;;;;;;;3.40;1.40;;;13.70;86.30;;;;;;579893;248;27353;-68
2022/05/22 06:23:19;;;;;;;2.10;1.25;;;13.70;85.70;;;;;;590542;243;26635;-68
2022/05/22 06:25:47;;;;;;;2.62;1.25;;;13.70;85.50;;;;;;590627;243;26847;-68
2022/05/22 06:28:15;;;;;;;3.15;1.20;;;13.80;85.30;;;;;;592065;241;26640;-68
2022/05/22 06:30:42;;;;;;;3.12;1.20;;;13.80;85.10;;;;;;580670;247;27340;-68
2022/05/22 06:33:09;;;;;;;2.25;1.48;;;14.10;84.40;;;;;;581094;247;26651;-67
2022/05/22 06:35:39;;;;;;;3.10;1.30;;;14.40;83.30;;;;;;580549;248;26696;-67
2022/05/22 06:38:05;;;;;;;7.37;2.10;;;14.60;81.70;;;;;;580704;248;26606;-67
2022/05/22 06:40:32;;;;;;;3.40;1.40;;;14.60;81.50;;;;;;592519;239;26838;-67
2022/05/22 06:43:01;;;;;;;3.50;1.45;;;15.00;81.10;;;;;;581909;247;26625;-67
2022/05/22 06:45:27;;;;;;;5.05;1.62;;;15.20;80.00;;;;;;581625;245;26842;-67
2022/05/22 06:47:54;;;;;;;2.92;1.33;;;15.10;79.90;;;;;;588432;244;26594;-67
2022/05/22 06:50:21;;;;;;;2.45;1.25;;;15.00;80.10;;;;;;594971;238;26847;-67
2022/05/22 06:52:48;;;;;;;5.78;1.45;;;14.70;80.60;;;;;;610851;235;26619;-67
2022/05/22 06:55:16;;;;;;;4.32;1.40;;;14.70;81.20;;;;;;604358;234;26809;-67
2022/05/22 06:57:44;;;;;;;4.53;1.37;;;15.00;80.00;;;;;;608210;236;26680;-67
2022/05/22 07:00:14;;;;;;;1.48;1.35;;;15.30;79.20;;;;;;604759;235;26598;-67
2022/05/22 07:02:40;;;;;;;2.53;1.40;;;15.30;79.20;;;;;;601765;238;26593;-67
2022/05/22 07:05:07;;;;;;;2.83;1.40;;;15.30;78.40;;;;;;601701;237;27065;-67
2022/05/22 07:07:34;;;;;;;2.28;1.30;;;15.30;78.10;;;;;;601695;237;26838;-67
2022/05/22 07:10:02;;;;;;;3.28;1.40;;;15.10;78.00;;;;;;601797;236;26622;-67
2022/05/22 07:12:29;;;;;;;3.72;1.58;;;14.90;78.30;;;;;;609782;235;26823;-67
2022/05/22 07:14:56;;;;;;;4.03;1.52;;;15.00;78.60;;;;;;606549;235;26597;-68
2022/05/22 07:17:24;;;;;;;1.52;1.02;;;15.10;77.40;;;;;;603306;237;26558;-67
2022/05/22 07:19:52;;;;;;;4.22;1.48;;;15.60;76.40;;;;;;602142;238;26597;-67
2022/05/22 07:22:20;;;;;;;2.40;1.30;;;15.50;76.30;;;;;;604050;237;27121;-67
2022/05/22 07:24:47;;;;;;;3.22;1.37;;;15.60;76.40;;;;;;601537;237;26646;-67
2022/05/22 07:27:14;;;;;;;2.97;1.40;;;15.60;76.50;;;;;;601557;238;26887;-67
2022/05/22 07:29:41;;;;;;;2.00;1.05;;;15.30;76.40;;;;;;607447;236;26590;-67
2022/05/22 07:32:09;;;;;;;1.80;1.20;;;15.10;77.50;;;;;;602644;235;26861;-67
2022/05/22 07:34:38;;;;;;;2.92;1.30;;;15.20;77.70;;;;;;604537;238;26863;-68
2022/05/22 07:37:04;;;;;;;1.48;1.15;;;15.60;77.70;;;;;;606828;236;26580;-68
2022/05/22 07:39:32;;;;;;;2.40;1.20;;;15.80;74.50;;;;;;605859;233;26608;-68
2022/05/22 07:41:59;;;;;;;4.47;1.48;;;15.50;74.10;;;;;;605171;237;26638;-67
2022/05/22 07:44:27;;;;;;;3.22;1.05;;;15.50;74.10;;;;;;604420;234;26650;-66
2022/05/22 07:46:55;;;;;;;6.40;1.50;;;15.50;74.40;;;;;;609202;234;26675;-66
2022/05/22 07:51:55;;;;;;;2.25;1.20;;;15.60;73.90;;;;;;610373;236;26852;-66
2022/05/22 07:54:22;;;;;;;3.67;1.33;;;15.50;74.50;;;;;;609603;236;26609;-66
2022/05/22 07:56:50;;;;;;;2.83;1.30;;;15.30;74.70;;;;;;603944;236;27230;-67
2022/05/22 07:59:17;;;;;;;4.40;1.48;;;15.30;74.70;;;;;;603494;237;26813;-67
2022/05/22 08:01:44;;;;;;;2.95;1.27;;;15.60;74.20;;;;;;602575;237;26582;-67
2022/05/22 08:04:11;;;;;;;2.37;1.00;;;15.70;74.30;;;;;;604275;232;27234;-67
2022/05/22 08:06:39;;;;;;;2.67;1.30;;;15.80;73.50;;;;;;602653;237;26569;-66
2022/05/22 08:09:06;;;;;;;1.33;0.93;;;16.00;73.40;;;;;;604686;235;26829;-66
2022/05/22 08:11:34;;;;;;;2.25;1.10;;;16.60;71.10;;;;;;590850;243;26613;-67
2022/05/22 08:14:02;;;;;;;2.53;1.20;;;16.50;71.10;;;;;;580080;247;26667;-67
2022/05/22 08:16:30;;;;;;;1.83;1.08;;;16.50;70.50;;;;;;579869;247;26697;-67
2022/05/22 08:18:56;;;;;;;2.87;1.08;;;16.40;71.60;;;;;;579783;248;26675;-67
2022/05/22 08:21:23;;;;;;;2.78;1.10;;;16.40;71.20;;;;;;579795;248;27433;-67
2022/05/22 08:23:50;;;;;;;1.85;1.12;;;16.80;69.60;;;;;;579806;247;26692;-67
2022/05/22 08:26:18;;;;;;;2.12;1.00;;;16.60;69.20;;;;;;579858;247;26973;-67
2022/05/22 08:28:45;;;;;;;3.40;1.20;;;16.60;69.30;;;;;;579833;247;26643;-67
2022/05/22 08:31:12;;;;;;;1.80;0.90;;;16.10;69.10;;;;;;579853;248;26913;-67
2022/05/22 08:33:40;;;;;;;2.97;1.23;;;16.20;69.70;;;;;;579866;247;26668;-67
2022/05/22 08:36:08;;;;;;;2.12;1.00;;;16.50;68.90;;;;;;579802;248;26704;-67
2022/05/22 08:38:35;;;;;;;2.67;1.40;;;16.50;68.90;;;;;;579847;248;26685;-67
2022/05/22 08:41:15;;;;;;;1.42;1.12;;;16.80;68.60;;;;;;579863;248;26915;-67
2022/05/22 08:43:52;;;;;;;1.55;0.88;;;16.70;68.50;;;;;;579476;248;26887;-67
2022/05/22 08:46:23;;;;;;;1.92;0.90;;;16.60;68.30;;;;;;579703;248;26898;-67
2022/05/22 08:48:52;;;;;;;1.37;1.10;;;17.00;67.50;;;;;;590294;243;26846;-67
2022/05/22 08:51:20;;;;;;;1.52;1.30;;;17.60;66.10;;;;;;592000;241;26668;-67
2022/05/22 08:53:47;;;;;;;1.80;1.20;;;17.70;65.50;;;;;;591044;243;26619;-67
2022/05/22 09:01:43;;;;;;;3.00;1.33;;;16.70;65.50;;;;;;591056;242;26581;-67
2022/05/22 09:04:42;;;;;;;2.92;1.17;;;16.60;65.30;;;;;;580393;248;26657;-67
2022/05/22 09:07:09;;;;;;;1.58;1.08;;;16.40;65.70;;;;;;580266;248;26870;-67
2022/05/22 09:09:36;;;;;;;1.48;0.93;;;16.50;66.40;;;;;;590226;243;26604;-67
2022/05/22 09:12:04;;;;;;;2.92;1.25;;;16.50;66.90;;;;;;590751;243;26851;-67
2022/05/22 09:14:38;;;;;;;0.85;0.82;;;16.70;66.20;;;;;;590012;243;26639;-67
2022/05/22 09:17:08;;;;;;;3.25;1.12;;;16.70;66.20;;;;;;580002;248;26629;-67
2022/05/22 09:19:52;;;;;;;1.60;1.00;;;17.10;65.90;;;;;;590334;243;26598;-68
2022/05/22 09:22:21;;;;;;;2.28;1.10;;;17.10;65.90;;;;;;590208;243;26666;-68
2022/05/22 09:25:07;;;;;;;3.33;1.10;;;17.60;65.20;;;;;;590732;243;26910;-68
2022/05/22 09:27:54;;;;;;;2.03;0.93;;;17.70;64.70;;;;;;573922;248;26938;-68
2022/05/22 09:30:29;;;;;;;1.37;1.00;;;17.90;64.10;;;;;;573779;247;26695;-68
2022/05/22 09:32:56;;;;;;;2.67;1.20;;;17.90;62.80;;;;;;579579;248;26725;-68
2022/05/22 09:35:29;;;;;;;3.25;1.20;;;17.80;62.20;;;;;;589876;243;26863;-66
2022/05/22 09:38:15;;;;;;;1.77;0.90;;;17.90;61.60;;;;;;590003;243;26609;-68
2022/05/22 09:40:47;;;;;;;1.02;0.90;;;17.90;61.70;;;;;;579719;248;26686;-66
2022/05/22 09:43:19;;;;;;;1.17;0.90;;;17.90;60.70;;;;;;579797;247;26704;-66
2022/05/22 09:45:51;;;;;;;3.03;1.05;;;18.00;60.50;;;;;;579125;248;26688;-66
2022/05/22 09:48:35;;;;;;;1.60;0.95;;;18.30;59.80;;;;;;589774;243;26847;-67
2022/05/22 09:51:26;;;;;;;0.88;0.80;;;18.70;59.70;;;;;;577969;248;26721;-67
2022/05/22 09:54:17;;;;;;;1.20;1.08;;;18.90;59.60;;;;;;589147;243;26894;-67
2022/05/22 09:56:46;;;;;;;1.70;1.10;;;18.20;58.80;;;;;;578932;248;26691;-68
2022/05/22 09:59:25;;;;;;;2.92;1.00;;;18.60;59.10;;;;;;590004;243;27282;-67
2022/05/22 10:01:52;;;;;;;2.28;1.00;;;18.20;59.00;;;;;;580236;246;26698;-66
2022/05/22 10:04:21;;;;;;;2.20;0.95;;;17.90;59.60;;;;;;591642;243;26888;-67
2022/05/22 10:06:59;;;;;;;0.88;0.80;;;18.40;59.40;;;;;;580250;247;26637;-66
2022/05/22 10:09:48;;;;;;;1.00;0.90;;;18.40;58.60;;;;;;580151;247;26954;-66
2022/05/22 10:12:16;;;;;;;1.90;0.70;;;18.50;58.00;;;;;;579973;248;26633;-67
2022/05/22 10:14:48;;;;;;;2.45;1.02;;;17.90;58.60;;;;;;590755;243;26707;-66
2022/05/22 10:17:23;;;;;;;2.20;1.00;;;17.90;58.60;;;;;;591155;243;26570;-67
2022/05/22 10:20:09;;;;;;;2.28;1.23;;;18.10;59.00;;;;;;580557;248;26596;-67
2022/05/22 10:22:55;;;;;;;1.92;1.10;;;18.10;58.00;;;;;;580388;239;26621;-67
2022/05/22 10:25:25;;;;;;;1.62;0.88;;;18.00;58.00;;;;;;579888;248;26874;-68
2022/05/22 10:27:59;;;;;;;2.08;0.90;;;18.20;57.40;;;;;;579380;245;27374;-67
2022/05/22 10:30:26;;;;;;;1.12;0.85;;;18.70;57.50;;;;;;579875;247;26874;-67
2022/05/22 10:32:56;;;;;;;1.20;0.70;;;18.30;56.40;;;;;;590505;239;26804;-67
2022/05/22 10:35:28;;;;;;;1.62;1.05;;;18.30;56.70;;;;;;590428;239;26617;-67
2022/05/22 10:38:15;;;;;;;2.03;1.08;;;18.40;57.10;;;;;;579719;248;26636;-67
2022/05/22 10:43:16;;;;;;;1.98;0.88;;;18.50;57.20;;;;;;590572;242;26850;-67
2022/05/22 10:45:43;;;;;;;1.12;1.00;;;18.90;56.90;;;;;;579861;247;26696;-67
2022/05/22 10:48:19;;;;;;;1.52;0.90;;;18.30;56.10;;;;;;579888;247;26916;-67
2022/05/22 10:50:53;;;;;;;1.10;1.00;;;17.90;56.70;;;;;;579752;246;26843;-67
2022/05/22 10:53:24;;;;;;;22.80;2.10;;;18.10;57.00;;;;;;579808;247;26893;-69
2022/05/22 10:55:52;;;;;;;4.90;1.23;;;19.10;56.80;;;;;;579812;248;26716;-69
2022/05/22 10:58:28;;;;;;;6.82;1.37;;;19.60;55.20;;;;;;579541;248;26685;-71
2022/05/22 11:00:55;;;;;;;2.28;0.93;;;19.60;55.20;;;;;;579767;248;27343;-71
2022/05/22 11:03:26;;;;;;;2.03;0.88;;;20.20;54.40;;;;;;590490;243;26621;-71
2022/05/22 11:05:53;;;;;;;5.30;1.10;;;19.90;53.30;;;;;;579816;248;26648;-71
2022/05/22 11:08:24;;;;;;;1.98;1.12;;;19.60;53.40;;;;;;590592;242;26866;-71
2022/05/22 11:10:52;;;;;;;3.55;0.90;;;19.60;54.60;;;;;;593594;236;26574;-71
2022/05/22 11:13:21;;;;;;;2.75;0.90;;;19.50;54.90;;;;;;605734;235;26624;-70
2022/05/22 11:15:48;;;;;;;2.12;1.10;;;19.50;54.80;;;;;;606635;234;26661;-71
2022/05/22 11:18:18;;;;;;;1.15;0.90;;;19.80;55.00;;;;;;603767;232;26798;-71
2022/05/22 11:21:06;;;;;;;3.65;1.17;;;20.10;53.50;;;;;;605103;235;26660;-71
2022/05/22 11:24:05;;;;;;;4.82;1.10;;;20.00;53.50;;;;;;605675;233;26791;-71
2022/05/22 11:27:07;;;;;;;2.25;1.05;;;19.70;53.60;;;;;;603685;236;26646;-71
2022/05/22 11:29:54;;;;;;;1.17;0.90;;;19.30;52.50;;;;;;601708;234;26643;-74
2022/05/22 11:32:30;;;;;;;2.95;1.10;;;18.80;52.50;;;;;;606046;235;26797;-71
2022/05/22 11:35:20;;;;;;;3.30;1.00;;;19.10;53.50;;;;;;604518;235;26610;-71
2022/05/22 11:37:48;;;;;;;3.03;1.17;;;19.10;53.40;;;;;;603978;236;26689;-71
2022/05/22 11:40:21;;;;;;;6.32;1.40;;;19.70;52.10;;;;;;606769;235;26609;-72
2022/05/22 11:42:48;;;;;;;4.45;1.40;;;19.70;52.10;;;;;;604930;234;26554;-71
2022/05/22 11:45:17;;;;;;;5.97;1.05;;;19.60;52.80;;;;;;605674;235;26618;-72
2022/05/22 11:47:55;;;;;;;2.55;1.02;;;19.60;52.60;;;;;;607385;235;26659;-71
2022/05/22 11:50:28;;;;;;;4.53;0.93;;;19.00;53.40;;;;;;604987;234;26656;-71
2022/05/22 11:53:02;;;;;;;3.35;0.82;;;18.90;53.30;;;;;;603222;236;26614;-71
2022/05/22 11:56:00;;;;;;;1.23;1.00;;;18.50;52.90;;;;;;606773;234;26633;-71
2022/05/22 11:58:35;;;;;;;2.75;0.98;;;18.80;52.70;;;;;;604424;235;26858;-71
2022/05/22 12:01:08;;;;;;;1.98;0.90;;;19.00;50.90;;;;;;604094;231;26589;-71
2022/05/22 12:03:36;;;;;;;3.50;0.90;;;19.10;50.80;;;;;;603917;236;26888;-71
2022/05/22 12:06:05;;;;;;;1.90;0.95;;;19.30;50.80;;;;;;603705;235;26698;-70
2022/05/22 12:08:45;;;;;;;5.32;1.15;;;19.50;50.80;;;;;;603757;235;26634;-70
2022/05/22 12:11:30;;;;;;;1.20;1.08;;;19.60;50.30;;;;;;603975;236;26638;-70
2022/05/22 12:14:16;;;;;;;4.93;1.08;;;19.60;50.30;;;;;;604222;234;26867;-71
2022/05/22 12:16:42;;;;;;;2.53;1.10;;;20.20;50.30;;;;;;598393;239;26627;-65
2022/05/22 12:19:19;;;;;;;1.58;0.90;;;20.00;50.30;;;;;;600614;239;26636;-65
2022/05/22 12:22:00;;;;;;;1.45;0.85;;;20.00;50.20;;;;;;600573;239;26620;-65
2022/05/22 12:24:36;;;;;;;4.10;0.95;;;19.70;49.80;;;;;;601001;237;26643;-66
2022/05/22 12:27:03;;;;;;;3.10;1.05;;;19.70;50.40;;;;;;602309;239;26627;-66
2022/05/22 12:29:31;;;;;;;1.27;0.70;;;19.80;50.50;;;;;;602169;239;26570;-66
2022/05/22 12:31:58;;;;;;;1.35;0.93;;;19.70;49.40;;;;;;601843;239;26574;-67
2022/05/22 12:34:32;;;;;;;2.35;1.10;;;19.50;50.00;;;;;;601804;239;26880;-65
2022/05/22 12:37:00;;;;;;;1.05;0.90;;;20.20;48.00;;;;;;601381;239;26916;-66
2022/05/22 12:39:27;;;;;;;2.22;0.82;;;20.20;47.90;;;;;;601541;238;26971;-66
2022/05/22 12:41:58;;;;;;;1.58;1.12;;;20.60;47.50;;;;;;601329;239;26650;-66
2022/05/22 12:44:28;;;;;;;2.90;1.08;;;21.90;46.40;;;;;;601035;239;26657;-66
2022/05/22 12:46:54;;;;;;;2.40;1.00;;;22.70;45.90;;;;;;601231;238;26667;-64
2022/05/22 12:49:23;;;;;;;2.42;0.98;;;23.30;45.90;;;;;;601222;239;26651;-64
2022/05/22 12:52:03;;;;;;;1.90;0.95;;;23.10;45.50;;;;;;601098;239;26650;-65
2022/05/22 12:54:30;;;;;;;3.35;1.00;;;23.00;45.50;;;;;;601217;238;26622;-65
2022/05/22 12:57:05;;;;;;;1.35;0.98;;;21.30;46.40;;;;;;601249;238;26685;-65
2022/05/22 12:59:32;;;;;;;1.52;0.95;;;21.30;46.70;;;;;;601251;238;26899;-64
2022/05/22 13:01:59;;;;;;;9.50;1.12;;;20.90;46.70;;;;;;600986;238;26571;-64
2022/05/22 13:04:28;;;;;;;3.22;1.00;;;21.60;46.70;;;;;;600950;238;26901;-65
2022/05/22 13:07:12;;;;;;;5.07;0.98;;;21.80;46.90;;;;;;600744;235;26848;-66
2022/05/22 13:09:41;;;;;;;5.03;1.10;;;23.80;46.10;;;;;;600895;239;26616;-67
2022/05/22 13:12:10;;;;;;;13.65;1.85;;;23.70;45.50;;;;;;600800;239;26603;-66
2022/05/22 13:14:40;;;;;;;1.80;0.88;;;24.80;44.10;;;;;;599367;239;26630;-66
2022/05/22 13:17:07;;;;;;;4.72;1.27;;;26.60;42.60;;;;;;600799;239;26588;-66
2022/05/22 13:19:35;;;;;;;4.97;1.30;;;28.10;40.50;;;;;;600926;238;26568;-66
2022/05/22 13:22:08;;;;;;;4.57;1.40;;;28.00;40.30;;;;;;600950;239;26635;-66